sensor_id;sensor_type;location;lat;lon;timestamp;pressure;altitude;pressure_sealevel;temperature;humidity
76762;BME280;65705;51.032;13.790;2023-02-21T00:01:48;100259.06;;;10.70;64.60
76762;BME280;65705;51.032;13.790;2023-02-21T00:04:33;100267.13;;;10.77;64.50
76762;BME280;65705;51.032;13.790;2023-02-21T00:07:17;100258.06;;;10.71;64.64
76762;BME280;65705;51.032;13.790;2023-02-21T00:10:03;100268.91;;;10.76;64.39
76762;BME280;65705;51.032;13.790;2023-02-21T00:12:48;100261.19;;;10.75;64.53
76762;BME280;65705;51.032;13.790;2023-02-21T00:15:32;100259.06;;;10.70;64.69
76762;BME280;65705;51.032;13.790;2023-02-21T00:18:16;100265.75;;;10.65;64.66
76762;BME280;65705;51.032;13.790;2023-02-21T00:21:00;100231.97;;;10.70;64.35
76762;BME280;65705;51.032;13.790;2023-02-21T00:23:45;100264.41;;;10.60;64.80
76762;BME280;65705;51.032;13.790;2023-02-21T00:26:29;100277.69;;;10.59;65.11
76762;BME280;65705;51.032;13.790;2023-02-21T00:29:13;100281.94;;;10.60;65.10
76762;BME280;65705;51.032;13.790;2023-02-21T00:31:57;100268.97;;;10.58;65.07
76762;BME280;65705;51.032;13.790;2023-02-21T00:34:42;100277.97;;;10.56;65.34
76762;BME280;65705;51.032;13.790;2023-02-21T00:37:27;100277.00;;;10.57;65.49
76762;BME280;65705;51.032;13.790;2023-02-21T00:40:13;100281.91;;;10.52;66.23
76762;BME280;65705;51.032;13.790;2023-02-21T00:42:57;100265.47;;;10.50;66.35
76762;BME280;65705;51.032;13.790;2023-02-21T00:45:42;100257.88;;;10.39;66.74
76762;BME280;65705;51.032;13.790;2023-02-21T00:48:27;100267.53;;;10.38;66.34
76762;BME280;65705;51.032;13.790;2023-02-21T00:51:11;100229.66;;;10.41;66.14
76762;BME280;65705;51.032;13.790;2023-02-21T00:53:55;100245.56;;;10.39;66.07
76762;BME280;65705;51.032;13.790;2023-02-21T00:56:40;100255.06;;;10.40;65.94
76762;BME280;65705;51.032;13.790;2023-02-21T00:59:24;100247.03;;;10.42;65.87
76762;BME280;65705;51.032;13.790;2023-02-21T01:02:08;100248.75;;;10.51;65.68
76762;BME280;65705;51.032;13.790;2023-02-21T01:04:53;100240.88;;;10.51;65.59
76762;BME280;65705;51.032;13.790;2023-02-21T01:07:38;100234.16;;;10.48;65.53
76762;BME280;65705;51.032;13.790;2023-02-21T01:10:22;100229.72;;;10.49;65.30
76762;BME280;65705;51.032;13.790;2023-02-21T01:13:06;100229.03;;;10.47;65.41
76762;BME280;65705;51.032;13.790;2023-02-21T01:15:51;100225.63;;;10.46;65.33
76762;BME280;65705;51.032;13.790;2023-02-21T01:18:35;100233.94;;;10.42;65.32
76762;BME280;65705;51.032;13.790;2023-02-21T01:21:20;100217.56;;;10.48;65.23
76762;BME280;65705;51.032;13.790;2023-02-21T01:24:06;100219.53;;;10.46;65.17
76762;BME280;65705;51.032;13.790;2023-02-21T01:26:52;100224.16;;;10.52;65.05
76762;BME280;65705;51.032;13.790;2023-02-21T01:29:36;100210.38;;;10.50;65.08
76762;BME280;65705;51.032;13.790;2023-02-21T01:32:21;100228.75;;;10.50;64.83
76762;BME280;65705;51.032;13.790;2023-02-21T01:35:05;100198.72;;;10.52;64.75
76762;BME280;65705;51.032;13.790;2023-02-21T01:37:50;100221.06;;;10.56;64.69
76762;BME280;65705;51.032;13.790;2023-02-21T01:40:37;100212.16;;;10.49;64.87
76762;BME280;65705;51.032;13.790;2023-02-21T01:43:25;100223.19;;;10.53;64.85
76762;BME280;65705;51.032;13.790;2023-02-21T01:46:12;100213.50;;;10.53;64.87
76762;BME280;65705;51.032;13.790;2023-02-21T01:48:57;100214.97;;;10.56;64.67
76762;BME280;65705;51.032;13.790;2023-02-21T01:51:44;100200.75;;;10.58;64.55
76762;BME280;65705;51.032;13.790;2023-02-21T01:54:36;100194.00;;;10.56;64.91
76762;BME280;65705;51.032;13.790;2023-02-21T01:57:22;100216.66;;;10.57;64.77
76762;BME280;65705;51.032;13.790;2023-02-21T02:00:09;100196.25;;;10.51;65.23
76762;BME280;65705;51.032;13.790;2023-02-21T02:05:49;100203.19;;;10.52;65.12
76762;BME280;65705;51.032;13.790;2023-02-21T02:08:34;100207.28;;;10.54;65.18
76762;BME280;65705;51.032;13.790;2023-02-21T02:17:17;100200.56;;;10.60;65.17
76762;BME280;65705;51.032;13.790;2023-02-21T02:20:07;100185.66;;;10.60;65.40
76762;BME280;65705;51.032;13.790;2023-02-21T02:30:51;100205.22;;;10.66;65.38
76762;BME280;65705;51.032;13.790;2023-02-21T02:41:13;100191.75;;;10.69;65.11
76762;BME280;65705;51.032;13.790;2023-02-21T02:43:47;100180.91;;;10.64;65.48
76762;BME280;65705;51.032;13.790;2023-02-21T02:46:31;100171.09;;;10.66;65.50
76762;BME280;65705;51.032;13.790;2023-02-21T02:51:34;100171.75;;;10.68;65.30
76762;BME280;65705;51.032;13.790;2023-02-21T02:54:02;100181.25;;;10.69;65.24
76762;BME280;65705;51.032;13.790;2023-02-21T02:56:28;100175.69;;;10.72;65.21
76762;BME280;65705;51.032;13.790;2023-02-21T02:59:02;100168.66;;;10.73;65.10
76762;BME280;65705;51.032;13.790;2023-02-21T03:01:48;100164.91;;;10.75;65.03
76762;BME280;65705;51.032;13.790;2023-02-21T03:07:26;100156.13;;;10.58;65.47
76762;BME280;65705;51.032;13.790;2023-02-21T03:12:39;100163.22;;;10.66;65.70
76762;BME280;65705;51.032;13.790;2023-02-21T03:15:15;100161.09;;;10.70;65.65
76762;BME280;65705;51.032;13.790;2023-02-21T03:17:45;100155.34;;;10.74;65.60
76762;BME280;65705;51.032;13.790;2023-02-21T03:20:16;100152.72;;;10.66;65.84
76762;BME280;65705;51.032;13.790;2023-02-21T03:22:44;100158.94;;;10.65;66.06
76762;BME280;65705;51.032;13.790;2023-02-21T03:25:13;100165.69;;;10.68;66.04
76762;BME280;65705;51.032;13.790;2023-02-21T03:27:41;100167.19;;;10.70;66.06
76762;BME280;65705;51.032;13.790;2023-02-21T03:30:25;100158.81;;;10.75;65.88
76762;BME280;65705;51.032;13.790;2023-02-21T03:32:52;100168.69;;;10.81;65.72
76762;BME280;65705;51.032;13.790;2023-02-21T03:35:22;100153.06;;;10.79;66.08
76762;BME280;65705;51.032;13.790;2023-02-21T03:37:50;100161.94;;;10.78;66.00
76762;BME280;65705;51.032;13.790;2023-02-21T03:40:28;100169.66;;;10.80;66.00
76762;BME280;65705;51.032;13.790;2023-02-21T03:42:57;100138.47;;;10.77;66.16
76762;BME280;65705;51.032;13.790;2023-02-21T03:45:25;100159.81;;;10.82;66.13
76762;BME280;65705;51.032;13.790;2023-02-21T03:48:03;100150.44;;;10.79;65.98
76762;BME280;65705;51.032;13.790;2023-02-21T03:50:31;100161.09;;;10.78;66.34
76762;BME280;65705;51.032;13.790;2023-02-21T03:52:57;100150.31;;;10.89;66.01
76762;BME280;65705;51.032;13.790;2023-02-21T03:55:23;100152.28;;;10.87;65.75
76762;BME280;65705;51.032;13.790;2023-02-21T03:57:49;100152.09;;;10.80;66.37
76762;BME280;65705;51.032;13.790;2023-02-21T04:00:15;100152.28;;;10.87;66.03
76762;BME280;65705;51.032;13.790;2023-02-21T04:02:41;100159.81;;;10.82;66.27
76762;BME280;65705;51.032;13.790;2023-02-21T04:05:10;100167.06;;;10.88;66.13
76762;BME280;65705;51.032;13.790;2023-02-21T04:07:36;100162.63;;;10.88;66.28
76762;BME280;65705;51.032;13.790;2023-02-21T04:10:02;100165.91;;;10.90;66.03
76762;BME280;65705;51.032;13.790;2023-02-21T04:12:43;100153.59;;;10.83;66.33
76762;BME280;65705;51.032;13.790;2023-02-21T04:15:09;100157.03;;;10.83;66.22
76762;BME280;65705;51.032;13.790;2023-02-21T04:17:36;100169.03;;;10.86;66.24
76762;BME280;65705;51.032;13.790;2023-02-21T04:20:03;100160.66;;;10.82;66.36
76762;BME280;65705;51.032;13.790;2023-02-21T04:22:31;100153.13;;;10.87;66.33
76762;BME280;65705;51.032;13.790;2023-02-21T04:24:57;100156.38;;;10.81;66.67
76762;BME280;65705;51.032;13.790;2023-02-21T04:27:24;100157.69;;;10.85;66.43
76762;BME280;65705;51.032;13.790;2023-02-21T04:29:54;100153.44;;;10.84;66.75
76762;BME280;65705;51.032;13.790;2023-02-21T04:32:20;100165.56;;;10.85;66.79
76762;BME280;65705;51.032;13.790;2023-02-21T04:34:46;100159.81;;;10.82;67.14
76762;BME280;65705;51.032;13.790;2023-02-21T04:37:12;100174.13;;;10.87;67.09
76762;BME280;65705;51.032;13.790;2023-02-21T04:39:37;100154.41;;;10.83;67.23
76762;BME280;65705;51.032;13.790;2023-02-21T04:42:03;100149.00;;;10.85;67.20
76762;BME280;65705;51.032;13.790;2023-02-21T04:44:29;100132.94;;;10.88;67.08
76762;BME280;65705;51.032;13.790;2023-02-21T04:46:55;100153.44;;;10.84;67.48
76762;BME280;65705;51.032;13.790;2023-02-21T04:49:21;100142.44;;;10.89;67.26
76762;BME280;65705;51.032;13.790;2023-02-21T04:51:50;100150.66;;;10.86;67.50
76762;BME280;65705;51.032;13.790;2023-02-21T04:54:16;100159.19;;;10.88;67.55
76762;BME280;65705;51.032;13.790;2023-02-21T04:56:42;100161.66;;;10.89;67.58
76762;BME280;65705;51.032;13.790;2023-02-21T04:59:07;100165.63;;;10.93;67.42
76762;BME280;65705;51.032;13.790;2023-02-21T05:01:33;100164.28;;;10.89;67.62
76762;BME280;65705;51.032;13.790;2023-02-21T05:03:59;100152.63;;;10.92;67.33
76762;BME280;65705;51.032;13.790;2023-02-21T05:06:27;100170.03;;;10.93;67.51
76762;BME280;65705;51.032;13.790;2023-02-21T05:08:53;100164.78;;;10.93;67.73
76762;BME280;65705;51.032;13.790;2023-02-21T05:11:20;100152.13;;;10.88;67.76
76762;BME280;65705;51.032;13.790;2023-02-21T05:13:46;100144.91;;;10.90;67.57
76762;BME280;65705;51.032;13.790;2023-02-21T05:16:12;100147.06;;;10.95;67.66
76762;BME280;65705;51.032;13.790;2023-02-21T05:18:41;100146.41;;;10.93;67.65
76762;BME280;65705;51.032;13.790;2023-02-21T05:21:07;100142.13;;;10.92;67.62
76762;BME280;65705;51.032;13.790;2023-02-21T05:23:33;100139.03;;;10.96;67.79
76762;BME280;65705;51.032;13.790;2023-02-21T05:26:05;100124.56;;;10.92;67.66
76762;BME280;65705;51.032;13.790;2023-02-21T05:28:31;100133.44;;;10.99;67.52
76762;BME280;65705;51.032;13.790;2023-02-21T05:30:57;100128.97;;;10.92;67.66
76762;BME280;65705;51.032;13.790;2023-02-21T05:33:23;100127.03;;;10.94;67.87
76762;BME280;65705;51.032;13.790;2023-02-21T05:35:49;100129.50;;;10.95;67.60
76762;BME280;65705;51.032;13.790;2023-02-21T05:38:17;100151.66;;;11.01;67.48
76762;BME280;65705;51.032;13.790;2023-02-21T05:40:43;100148.88;;;10.94;67.52
76762;BME280;65705;51.032;13.790;2023-02-21T05:43:08;100156.28;;;10.99;67.38
76762;BME280;65705;51.032;13.790;2023-02-21T05:45:34;100148.41;;;11.07;67.23
76762;BME280;65705;51.032;13.790;2023-02-21T05:48:00;100163.78;;;10.94;67.55
76762;BME280;65705;51.032;13.790;2023-02-21T05:50:27;100163.00;;;10.93;67.75
76762;BME280;65705;51.032;13.790;2023-02-21T05:52:55;100163.28;;;10.90;67.56
76762;BME280;65705;51.032;13.790;2023-02-21T05:55:21;100164.28;;;10.89;67.90
76762;BME280;65705;51.032;13.790;2023-02-21T05:57:47;100174.16;;;10.95;67.69
76762;BME280;65705;51.032;13.790;2023-02-21T06:00:19;100168.06;;;10.95;67.77
76762;BME280;65705;51.032;13.790;2023-02-21T06:02:45;100171.19;;;10.98;67.76
76762;BME280;65705;51.032;13.790;2023-02-21T06:05:11;100168.91;;;10.95;67.72
76762;BME280;65705;51.032;13.790;2023-02-21T06:07:37;100184.00;;;10.93;67.81
76762;BME280;65705;51.032;13.790;2023-02-21T06:10:04;100186.78;;;11.00;67.63
76762;BME280;65705;51.032;13.790;2023-02-21T06:12:30;100171.88;;;11.00;67.72
76762;BME280;65705;51.032;13.790;2023-02-21T06:14:56;100187.28;;;10.95;68.00
76762;BME280;65705;51.032;13.790;2023-02-21T06:17:21;100191.53;;;10.96;67.65
76762;BME280;65705;51.032;13.790;2023-02-21T06:19:47;100195.63;;;10.91;68.00
76762;BME280;65705;51.032;13.790;2023-02-21T06:22:13;100182.16;;;10.94;67.95
76762;BME280;65705;51.032;13.790;2023-02-21T06:24:38;100203.34;;;10.92;67.87
76762;BME280;65705;51.032;13.790;2023-02-21T06:27:04;100198.81;;;11.02;67.87
76762;BME280;65705;51.032;13.790;2023-02-21T06:29:30;100208.94;;;10.97;67.83
76762;BME280;65705;51.032;13.790;2023-02-21T06:31:57;100211.72;;;10.96;68.12
76762;BME280;65705;51.032;13.790;2023-02-21T06:34:25;100211.56;;;10.97;68.15
76762;BME280;65705;51.032;13.790;2023-02-21T06:36:54;100237.47;;;10.92;68.08
76762;BME280;65705;51.032;13.790;2023-02-21T06:39:21;100214.84;;;10.99;67.91
76762;BME280;65705;51.032;13.790;2023-02-21T06:41:48;100222.06;;;10.97;67.96
76762;BME280;65705;51.032;13.790;2023-02-21T06:44:14;100254.25;;;10.99;67.82
76762;BME280;65705;51.032;13.790;2023-02-21T06:46:41;100233.56;;;10.96;67.95
76762;BME280;65705;51.032;13.790;2023-02-21T06:49:08;100214.84;;;10.99;67.89
76762;BME280;65705;51.032;13.790;2023-02-21T06:51:39;100234.22;;;10.98;67.90
76762;BME280;65705;51.032;13.790;2023-02-21T06:54:06;100236.88;;;11.06;67.92
76762;BME280;65705;51.032;13.790;2023-02-21T06:56:35;100227.88;;;11.09;67.63
76762;BME280;65705;51.032;13.790;2023-02-21T06:59:01;100235.91;;;11.07;67.80
76762;BME280;65705;51.032;13.790;2023-02-21T07:01:29;100236.53;;;11.01;67.79
76762;BME280;65705;51.032;13.790;2023-02-21T07:03:56;100254.47;;;11.06;68.01
76762;BME280;65705;51.032;13.790;2023-02-21T07:06:22;100240.50;;;11.05;67.66
76762;BME280;65705;51.032;13.790;2023-02-21T07:08:48;100253.47;;;11.07;67.71
76762;BME280;65705;51.032;13.790;2023-02-21T07:11:15;100245.25;;;11.02;67.87
76762;BME280;65705;51.032;13.790;2023-02-21T07:13:46;100256.25;;;11.13;67.31
76762;BME280;65705;51.032;13.790;2023-02-21T07:16:11;100278.13;;;11.14;67.43
76762;BME280;65705;51.032;13.790;2023-02-21T07:18:38;100261.34;;;11.07;67.83
76762;BME280;65705;51.032;13.790;2023-02-21T07:21:04;100265.47;;;11.09;67.67
76762;BME280;65705;51.032;13.790;2023-02-21T07:23:30;100257.72;;;11.08;67.55
76762;BME280;65705;51.032;13.790;2023-02-21T07:25:56;100264.97;;;11.06;67.74
76762;BME280;65705;51.032;13.790;2023-02-21T07:28:22;100269.72;;;11.10;67.89
76762;BME280;65705;51.032;13.790;2023-02-21T07:30:47;100266.31;;;11.18;67.44
76762;BME280;65705;51.032;13.790;2023-02-21T07:33:13;100274.88;;;11.20;67.58
76762;BME280;65705;51.032;13.790;2023-02-21T07:35:39;100269.13;;;11.24;67.41
76762;BME280;65705;51.032;13.790;2023-02-21T07:38:05;100259.78;;;11.30;66.86
76762;BME280;65705;51.032;13.790;2023-02-21T07:40:30;100276.19;;;11.24;67.28
76762;BME280;65705;51.032;13.790;2023-02-21T07:42:56;100274.53;;;11.23;67.26
76762;BME280;65705;51.032;13.790;2023-02-21T07:45:21;100275.38;;;11.31;66.94
76762;BME280;65705;51.032;13.790;2023-02-21T07:47:47;100274.69;;;11.21;67.12
76762;BME280;65705;51.032;13.790;2023-02-21T07:50:15;100283.59;;;11.28;67.25
76762;BME280;65705;51.032;13.790;2023-02-21T07:52:41;100286.56;;;11.33;66.98
76762;BME280;65705;51.032;13.790;2023-02-21T07:55:07;100285.09;;;11.31;67.03
76762;BME280;65705;51.032;13.790;2023-02-21T07:57:33;100290.84;;;11.34;66.94
76762;BME280;65705;51.032;13.790;2023-02-21T07:59:58;100281.63;;;11.30;66.99
76762;BME280;65705;51.032;13.790;2023-02-21T08:02:24;100279.84;;;11.31;67.01
76762;BME280;65705;51.032;13.790;2023-02-21T08:04:51;100282.09;;;11.26;67.46
76762;BME280;65705;51.032;13.790;2023-02-21T08:07:17;100277.16;;;11.23;67.40
76762;BME280;65705;51.032;13.790;2023-02-21T08:09:43;100287.50;;;11.24;67.61
76762;BME280;65705;51.032;13.790;2023-02-21T08:12:08;100280.47;;;11.25;67.49
76762;BME280;65705;51.032;13.790;2023-02-21T08:14:34;100282.47;;;11.31;67.18
76762;BME280;65705;51.032;13.790;2023-02-21T08:17:00;100279.66;;;11.32;67.05
76762;BME280;65705;51.032;13.790;2023-02-21T08:19:25;100298.34;;;11.29;67.14
76762;BME280;65705;51.032;13.790;2023-02-21T08:21:51;100283.94;;;11.33;67.03
76762;BME280;65705;51.032;13.790;2023-02-21T08:24:17;100280.63;;;11.31;67.23
76762;BME280;65705;51.032;13.790;2023-02-21T08:26:43;100288.84;;;11.28;67.30
76762;BME280;65705;51.032;13.790;2023-02-21T08:29:11;100275.09;;;11.34;67.21
76762;BME280;65705;51.032;13.790;2023-02-21T08:31:38;100290.47;;;11.29;67.51
76762;BME280;65705;51.032;13.790;2023-02-21T08:34:05;100284.25;;;11.30;67.45
76762;BME280;65705;51.032;13.790;2023-02-21T08:36:33;100271.78;;;11.32;67.26
76762;BME280;65705;51.032;13.790;2023-02-21T08:38:59;100295.72;;;11.21;67.77
76762;BME280;65705;51.032;13.790;2023-02-21T08:41:25;100294.06;;;11.20;68.08
76762;BME280;65705;51.032;13.790;2023-02-21T08:43:51;100306.56;;;11.26;67.67
76762;BME280;65705;51.032;13.790;2023-02-21T08:46:16;100296.25;;;11.33;67.41
76762;BME280;65705;51.032;13.790;2023-02-21T08:48:42;100290.34;;;11.39;67.23
76762;BME280;65705;51.032;13.790;2023-02-21T08:51:08;100295.63;;;11.39;67.00
76762;BME280;65705;51.032;13.790;2023-02-21T08:53:33;100299.53;;;11.35;67.23
76762;BME280;65705;51.032;13.790;2023-02-21T08:56:00;100314.00;;;11.31;67.19
76762;BME280;65705;51.032;13.790;2023-02-21T08:58:26;100287.50;;;11.24;67.70
76762;BME280;65705;51.032;13.790;2023-02-21T09:00:52;100289.19;;;11.25;67.71
76762;BME280;65705;51.032;13.790;2023-02-21T09:03:17;100291.31;;;11.30;67.26
76762;BME280;65705;51.032;13.790;2023-02-21T09:05:43;100291.97;;;11.32;67.28
76762;BME280;65705;51.032;13.790;2023-02-21T09:08:08;100298.91;;;11.41;67.00
76762;BME280;65705;51.032;13.790;2023-02-21T09:10:35;100292.53;;;11.43;66.84
76762;BME280;65705;51.032;13.790;2023-02-21T09:13:03;100288.91;;;11.44;66.66
76762;BME280;65705;51.032;13.790;2023-02-21T09:15:29;100293.19;;;11.53;66.51
76762;BME280;65705;51.032;13.790;2023-02-21T09:17:54;100295.19;;;11.59;66.19
76762;BME280;65705;51.032;13.790;2023-02-21T09:20:23;100286.66;;;11.57;66.02
76762;BME280;65705;51.032;13.790;2023-02-21T09:22:50;100314.88;;;11.55;66.03
76762;BME280;65705;51.032;13.790;2023-02-21T09:25:19;100296.81;;;11.60;65.92
76762;BME280;65705;51.032;13.790;2023-02-21T09:27:45;100288.28;;;11.50;66.03
76762;BME280;65705;51.032;13.790;2023-02-21T09:30:14;100280.22;;;11.60;66.34
76762;BME280;65705;51.032;13.790;2023-02-21T09:32:40;100303.75;;;11.61;66.03
76762;BME280;65705;51.032;13.790;2023-02-21T09:35:07;100280.22;;;11.60;66.28
76762;BME280;65705;51.032;13.790;2023-02-21T09:37:36;100289.50;;;11.72;65.98
76762;BME280;65705;51.032;13.790;2023-02-21T09:40:02;100287.22;;;11.77;65.67
76762;BME280;65705;51.032;13.790;2023-02-21T09:42:30;100295.13;;;11.93;65.22
76762;BME280;65705;51.032;13.790;2023-02-21T09:44:56;100285.75;;;11.99;64.94
76762;BME280;65705;51.032;13.790;2023-02-21T09:47:34;100310.22;;;11.99;65.03
76762;BME280;65705;51.032;13.790;2023-02-21T09:50:10;100300.72;;;11.90;65.17
76762;BME280;65705;51.032;13.790;2023-02-21T09:52:38;100304.16;;;11.99;64.96
76762;BME280;65705;51.032;13.790;2023-02-21T09:57:55;100299.38;;;12.10;64.83
76762;BME280;65705;51.032;13.790;2023-02-21T10:00:24;100297.25;;;12.14;64.70
76762;BME280;65705;51.032;13.790;2023-02-21T10:05:43;100300.25;;;12.19;64.62
76762;BME280;65705;51.032;13.790;2023-02-21T10:08:21;100301.22;;;12.26;64.36
76762;BME280;65705;51.032;13.790;2023-02-21T10:10:55;100318.31;;;12.22;64.52
76762;BME280;65705;51.032;13.790;2023-02-21T10:13:55;100309.59;;;12.13;64.42
76762;BME280;65705;51.032;13.790;2023-02-21T10:16:33;100320.13;;;12.21;64.63
76762;BME280;65705;51.032;13.790;2023-02-21T10:21:47;100312.25;;;12.13;64.26
76762;BME280;65705;51.032;13.790;2023-02-21T10:24:24;100329.00;;;12.12;64.55
76762;BME280;65705;51.032;13.790;2023-02-21T10:27:04;100323.91;;;12.27;64.40
76762;BME280;65705;51.032;13.790;2023-02-21T10:32:11;100317.81;;;12.10;64.37
76762;BME280;65705;51.032;13.790;2023-02-21T10:34:38;100330.13;;;12.02;64.77
76762;BME280;65705;51.032;13.790;2023-02-21T10:40:00;100328.69;;;12.31;64.05
76762;BME280;65705;51.032;13.790;2023-02-21T10:42:35;100328.84;;;12.38;63.54
76762;BME280;65705;51.032;13.790;2023-02-21T10:45:04;100324.06;;;12.33;63.50
76762;BME280;65705;51.032;13.790;2023-02-21T10:47:49;100317.34;;;12.31;63.56
76762;BME280;65705;51.032;13.790;2023-02-21T10:50:36;100327.53;;;12.34;63.09
76762;BME280;65705;51.032;13.790;2023-02-21T10:53:03;100315.53;;;12.31;63.34
76762;BME280;65705;51.032;13.790;2023-02-21T10:55:28;100323.75;;;12.36;63.21
76762;BME280;65705;51.032;13.790;2023-02-21T10:57:56;100320.78;;;12.39;62.96
76762;BME280;65705;51.032;13.790;2023-02-21T11:00:36;100322.78;;;12.29;63.13
76762;BME280;65705;51.032;13.790;2023-02-21T11:03:12;100332.47;;;12.29;63.12
76762;BME280;65705;51.032;13.790;2023-02-21T11:05:40;100328.19;;;12.28;63.03
76762;BME280;65705;51.032;13.790;2023-02-21T11:08:12;100316.84;;;12.27;63.15
76762;BME280;65705;51.032;13.790;2023-02-21T11:10:41;100323.06;;;12.26;63.25
76762;BME280;65705;51.032;13.790;2023-02-21T11:13:16;100332.47;;;12.29;63.35
76762;BME280;65705;51.032;13.790;2023-02-21T11:15:43;100344.00;;;12.28;63.38
76762;BME280;65705;51.032;13.790;2023-02-21T11:18:22;100329.31;;;12.33;63.33
76762;BME280;65705;51.032;13.790;2023-02-21T11:20:51;100328.84;;;12.30;63.43
76762;BME280;65705;51.032;13.790;2023-02-21T11:23:29;100324.56;;;12.29;63.33
76762;BME280;65705;51.032;13.790;2023-02-21T11:25:59;100328.50;;;12.25;63.33
76762;BME280;65705;51.032;13.790;2023-02-21T11:28:39;100329.00;;;12.12;64.06
76762;BME280;65705;51.032;13.790;2023-02-21T11:31:27;100317.47;;;12.05;63.96
76762;BME280;65705;51.032;13.790;2023-02-21T11:34:03;100326.53;;;12.11;63.86
76762;BME280;65705;51.032;13.790;2023-02-21T11:36:32;100325.19;;;12.07;64.13
76762;BME280;65705;51.032;13.790;2023-02-21T11:39:04;100322.09;;;12.11;64.10
76762;BME280;65705;51.032;13.790;2023-02-21T11:44:38;100308.44;;;12.16;64.10
76762;BME280;65705;51.032;13.790;2023-02-21T11:47:27;100315.53;;;12.23;63.75
76762;BME280;65705;51.032;13.790;2023-02-21T11:50:09;100314.38;;;12.18;63.98
76762;BME280;65705;51.032;13.790;2023-02-21T11:52:45;100312.72;;;12.17;64.03
76762;BME280;65705;51.032;13.790;2023-02-21T11:55:16;100326.19;;;12.14;64.25
76762;BME280;65705;51.032;13.790;2023-02-21T11:57:56;100314.84;;;12.21;64.24
76762;BME280;65705;51.032;13.790;2023-02-21T12:00:29;100317.00;;;12.10;64.28
76762;BME280;65705;51.032;13.790;2023-02-21T12:06:23;100312.72;;;12.09;64.48
76762;BME280;65705;51.032;13.790;2023-02-21T12:11:48;100315.03;;;12.20;64.13
76762;BME280;65705;51.032;13.790;2023-02-21T12:17:10;100310.09;;;12.17;64.57
76762;BME280;65705;51.032;13.790;2023-02-21T12:22:32;100317.63;;;12.12;64.43
76762;BME280;65705;51.032;13.790;2023-02-21T12:39:12;100294.78;;;12.12;64.43
76762;BME280;65705;51.032;13.790;2023-02-21T12:42:12;100296.44;;;12.21;64.36
76762;BME280;65705;51.032;13.790;2023-02-21T12:45:00;100302.84;;;12.27;64.21
76762;BME280;65705;51.032;13.790;2023-02-21T12:47:38;100294.31;;;12.33;63.91
76762;BME280;65705;51.032;13.790;2023-02-21T12:50:23;100286.41;;;12.33;63.95
76762;BME280;65705;51.032;13.790;2023-02-21T12:52:56;100286.09;;;12.44;63.58
76762;BME280;65705;51.032;13.790;2023-02-21T12:55:39;100284.28;;;12.36;63.80
76762;BME280;65705;51.032;13.790;2023-02-21T13:03:56;100278.81;;;12.54;63.02
76762;BME280;65705;51.032;13.790;2023-02-21T13:06:41;100279.16;;;12.51;62.88
76762;BME280;65705;51.032;13.790;2023-02-21T13:09:14;100270.91;;;12.54;62.97
76762;BME280;65705;51.032;13.790;2023-02-21T13:12:06;100279.31;;;12.49;63.22
76762;BME280;65705;51.032;13.790;2023-02-21T13:14:44;100276.19;;;12.54;63.00
76762;BME280;65705;51.032;13.790;2023-02-21T13:17:14;100275.34;;;12.53;63.08
76762;BME280;65705;51.032;13.790;2023-02-21T13:19:47;100270.25;;;12.52;62.98
76762;BME280;65705;51.032;13.790;2023-02-21T13:28:45;100272.72;;;12.61;63.09
76762;BME280;65705;51.032;13.790;2023-02-21T13:31:21;100283.06;;;12.55;62.91
76762;BME280;65705;51.032;13.790;2023-02-21T13:33:53;100243.94;;;12.52;62.84
76762;BME280;65705;51.032;13.790;2023-02-21T13:39:14;100263.84;;;12.46;63.11
76762;BME280;65705;51.032;13.790;2023-02-21T13:41:53;100255.78;;;12.48;62.93
76762;BME280;65705;51.032;13.790;2023-02-21T13:44:35;100257.94;;;12.44;63.07
76762;BME280;65705;51.032;13.790;2023-02-21T13:47:13;100252.66;;;12.44;63.14
76762;BME280;65705;51.032;13.790;2023-02-21T13:49:55;100259.75;;;12.36;63.27
76762;BME280;65705;51.032;13.790;2023-02-21T14:10:58;100281.31;;;12.31;63.52
76762;BME280;65705;51.032;13.790;2023-02-21T14:13:36;100270.28;;;12.36;63.57
76762;BME280;65705;51.032;13.790;2023-02-21T14:21:29;100272.28;;;12.26;63.93
76762;BME280;65705;51.032;13.790;2023-02-21T14:26:49;100277.38;;;12.27;64.29
76762;BME280;65705;51.032;13.790;2023-02-21T14:39:53;100273.09;;;12.34;63.88
76762;BME280;65705;51.032;13.790;2023-02-21T14:56:39;100268.78;;;12.33;64.06
76762;BME280;65705;51.032;13.790;2023-02-21T15:04:47;100270.78;;;12.47;63.62
76762;BME280;65705;51.032;13.790;2023-02-21T15:07:20;100268.94;;;12.48;63.53
76762;BME280;65705;51.032;13.790;2023-02-21T15:10:20;100272.25;;;12.42;63.82
76762;BME280;65705;51.032;13.790;2023-02-21T15:13:01;100257.13;;;12.36;63.87
76762;BME280;65705;51.032;13.790;2023-02-21T15:15:35;100271.91;;;12.37;64.00
76762;BME280;65705;51.032;13.790;2023-02-21T15:18:08;100269.97;;;12.31;64.11
76762;BME280;65705;51.032;13.790;2023-02-21T15:20:37;100270.63;;;12.33;64.09
76762;BME280;65705;51.032;13.790;2023-02-21T15:23:21;100273.06;;;12.26;64.30
76762;BME280;65705;51.032;13.790;2023-02-21T15:25:56;100275.72;;;12.34;63.92
76762;BME280;65705;51.032;13.790;2023-02-21T15:28:25;100274.22;;;12.32;64.03
76762;BME280;65705;51.032;13.790;2023-02-21T15:31:08;100281.47;;;12.38;64.06
76762;BME280;65705;51.032;13.790;2023-02-21T15:33:39;100279.69;;;12.22;64.41
76762;BME280;65705;51.032;13.790;2023-02-21T15:36:19;100280.66;;;12.21;64.45